Time;durP1;ratioP1;P1;durP2;ratioP2;P2;SDS_P1;SDS_P2;PMS_P1;PMS_P2;Temp;Humidity;BMP_temperature;BMP_pressure;BME280_temperature;BME280_humidity;BME280_pressure;Samples;Min_cycle;Max_cycle;Signal;HPM_P1;HPM_P2
2024/02/08 00:01:49;;;;;;;13.48;3.55;;;8.50;90.50;;;;;;5032253;28;20029;-78
2024/02/08 00:04:15;;;;;;;14.48;4.53;;;8.50;90.60;;;;;;5031849;28;20533;-78
2024/02/08 00:06:41;;;;;;;15.02;3.65;;;8.50;90.70;;;;;;5032079;28;20037;-78
2024/02/08 00:09:08;;;;;;;10.40;4.03;;;8.40;90.90;;;;;;5014256;28;20041;-78
2024/02/08 00:11:33;;;;;;;8.88;3.40;;;8.40;91.00;;;;;;5035938;28;20210;-78
2024/02/08 00:13:59;;;;;;;16.45;4.40;;;8.40;91.10;;;;;;5044972;28;20532;-78
2024/02/08 00:16:26;;;;;;;12.52;3.75;;;8.40;91.30;;;;;;5038414;28;20385;-78
2024/02/08 00:18:53;;;;;;;22.45;4.47;;;8.30;91.40;;;;;;5031164;28;20052;-78
2024/02/08 00:21:18;;;;;;;18.90;4.90;;;8.30;91.40;;;;;;5029940;28;20038;-78
2024/02/08 00:23:44;;;;;;;19.27;4.07;;;8.30;91.40;;;;;;5028824;28;20033;-78
2024/02/08 00:26:10;;;;;;;6.22;2.92;;;8.20;91.50;;;;;;5029264;28;20022;-78
2024/02/08 00:28:35;;;;;;;10.10;3.60;;;8.20;91.60;;;;;;5026919;28;20025;-78
2024/02/08 00:31:04;;;;;;;13.57;3.67;;;8.10;91.70;;;;;;5041199;28;20029;-78
2024/02/08 00:33:33;;;;;;;13.35;3.67;;;8.10;91.90;;;;;;5029716;28;20041;-77
2024/02/08 00:36:00;;;;;;;20.75;3.78;;;8.00;92.00;;;;;;5032807;28;20691;-78
2024/02/08 00:38:28;;;;;;;16.88;2.67;;;8.10;92.40;;;;;;5037224;28;20492;-78
2024/02/08 00:40:55;;;;;;;14.73;3.45;;;8.00;92.20;;;;;;5019481;28;20452;-78
2024/02/08 00:43:21;;;;;;;13.35;2.97;;;8.00;92.30;;;;;;5039817;28;20436;-78
2024/02/08 00:45:47;;;;;;;9.57;3.80;;;7.90;92.40;;;;;;5047461;28;20025;-78
2024/02/08 00:48:12;;;;;;;10.18;3.30;;;7.90;92.50;;;;;;5042679;28;20113;-78
2024/02/08 00:50:38;;;;;;;17.58;3.65;;;7.80;92.50;;;;;;5031953;28;20030;-78
2024/02/08 00:53:05;;;;;;;15.15;2.72;;;7.80;92.60;;;;;;5018051;28;20021;-78
2024/02/08 00:55:34;;;;;;;16.25;3.33;;;7.80;92.60;;;;;;5020395;28;20100;-78
2024/02/08 00:58:02;;;;;;;14.93;3.80;;;7.80;92.60;;;;;;5011827;28;20045;-78
2024/02/08 01:00:30;;;;;;;14.95;2.90;;;7.80;92.70;;;;;;5019699;28;20577;-78
2024/02/08 01:02:59;;;;;;;12.73;3.25;;;7.80;92.70;;;;;;5041387;28;20039;-78
2024/02/08 01:05:24;;;;;;;11.05;3.17;;;7.80;92.70;;;;;;5037402;28;20041;-78
2024/02/08 01:07:51;;;;;;;17.38;3.25;;;7.70;92.80;;;;;;5029965;28;20036;-78
2024/02/08 01:10:17;;;;;;;12.10;2.78;;;7.70;92.80;;;;;;5048428;28;20048;-78
2024/02/08 01:12:43;;;;;;;20.55;3.53;;;7.70;92.90;;;;;;5043515;28;20021;-78
2024/02/08 01:15:14;;;;;;;14.75;2.55;;;7.70;92.90;;;;;;5046789;28;20044;-78
2024/02/08 01:17:42;;;;;;;5.25;2.15;;;7.70;93.00;;;;;;5033930;28;20087;-78
2024/02/08 01:20:09;;;;;;;5.60;1.92;;;7.70;93.00;;;;;;5048051;28;20431;-77
2024/02/08 01:22:35;;;;;;;5.95;2.35;;;7.60;93.00;;;;;;5028329;28;20091;-78
2024/02/08 01:25:00;;;;;;;2.08;1.52;;;7.60;93.10;;;;;;5040659;28;20456;-78
2024/02/08 01:27:26;;;;;;;8.18;3.03;;;7.60;93.10;;;;;;5046029;28;20033;-77
2024/02/08 01:29:59;;;;;;;21.98;4.25;;;7.50;93.40;;;;;;5026811;28;20017;-78
2024/02/08 01:32:27;;;;;;;8.63;2.42;;;7.50;93.10;;;;;;5034517;28;20427;-78
2024/02/08 01:34:54;;;;;;;10.35;3.00;;;7.50;93.20;;;;;;5028837;28;20036;-77
2024/02/08 01:37:20;;;;;;;14.10;2.95;;;7.50;93.20;;;;;;5025096;28;20040;-77
2024/02/08 01:39:45;;;;;;;8.57;3.20;;;7.50;93.20;;;;;;5027371;28;20044;-78
2024/02/08 01:42:18;;;;;;;10.07;3.08;;;7.50;93.20;;;;;;5039143;28;20022;-78
2024/02/08 01:44:47;;;;;;;14.95;3.47;;;7.40;93.20;;;;;;5039729;28;20044;-77
2024/02/08 01:47:17;;;;;;;18.00;3.45;;;7.40;93.20;;;;;;5037259;28;20086;-78
2024/02/08 01:49:44;;;;;;;12.77;3.03;;;7.40;93.20;;;;;;5042028;28;20029;-78
2024/02/08 01:52:10;;;;;;;5.05;2.20;;;7.40;93.30;;;;;;5039156;28;20032;-78
2024/02/08 01:54:43;;;;;;;12.27;3.28;;;7.40;93.20;;;;;;5027056;28;20123;-78
2024/02/08 01:57:09;;;;;;;4.80;2.20;;;7.30;93.20;;;;;;5018124;28;20061;-78
2024/02/08 01:59:36;;;;;;;13.35;3.30;;;7.30;93.30;;;;;;5024962;28;20405;-78
2024/02/08 02:02:02;;;;;;;8.27;1.77;;;7.20;93.30;;;;;;5036760;28;20082;-77
2024/02/08 02:04:30;;;;;;;9.38;3.03;;;7.20;93.40;;;;;;5025477;28;20124;-77
2024/02/08 02:07:00;;;;;;;9.55;2.13;;;7.20;93.50;;;;;;5039219;28;20473;-78
2024/02/08 02:09:25;;;;;;;7.95;2.35;;;7.20;93.50;;;;;;5040512;28;20049;-78
2024/02/08 02:12:01;;;;;;;12.85;3.70;;;7.20;93.50;;;;;;5017122;28;20473;-78
2024/02/08 02:14:29;;;;;;;19.73;3.50;;;7.20;93.40;;;;;;5041016;28;20041;-78
2024/02/08 02:17:16;;;;;;;6.03;2.75;;;7.30;93.40;;;;;;5039579;28;20037;-78
2024/02/08 02:19:42;;;;;;;14.43;3.72;;;7.30;93.30;;;;;;5028028;28;20041;-78
2024/02/08 02:22:10;;;;;;;11.60;3.20;;;7.30;93.30;;;;;;5031852;28;20369;-78
2024/02/08 02:24:40;;;;;;;12.52;3.25;;;7.40;93.20;;;;;;5035102;28;20534;-77
2024/02/08 02:27:07;;;;;;;10.32;2.50;;;7.40;93.10;;;;;;5031327;28;20029;-78
2024/02/08 02:29:34;;;;;;;19.70;4.93;;;7.50;93.00;;;;;;5035865;28;20045;-78
2024/02/08 02:32:01;;;;;;;9.63;3.10;;;7.50;92.90;;;;;;5019358;28;20373;-78
2024/02/08 02:34:30;;;;;;;14.88;2.90;;;7.60;92.80;;;;;;5008268;28;20125;-78
2024/02/08 02:37:00;;;;;;;9.43;2.97;;;7.60;92.70;;;;;;5027838;28;20091;-78
2024/02/08 02:39:31;;;;;;;11.52;2.75;;;7.60;92.70;;;;;;5023454;28;20057;-78
2024/02/08 02:41:57;;;;;;;14.75;3.22;;;7.60;92.70;;;;;;5024113;28;20483;-78
2024/02/08 02:44:23;;;;;;;12.73;2.90;;;7.60;92.70;;;;;;5025172;28;20048;-79
2024/02/08 02:46:53;;;;;;;18.63;3.35;;;7.60;92.80;;;;;;5011709;28;20030;-78
2024/02/08 02:49:21;;;;;;;10.43;2.90;;;7.60;92.80;;;;;;5021920;28;20477;-78
2024/02/08 02:51:48;;;;;;;13.68;2.85;;;7.60;92.80;;;;;;5028257;28;20021;-78
2024/02/08 02:54:16;;;;;;;24.75;4.10;;;7.60;92.80;;;;;;5030314;28;20068;-77
2024/02/08 02:56:50;;;;;;;7.10;2.63;;;7.60;92.80;;;;;;5022761;28;20050;-78
2024/02/08 02:59:18;;;;;;;13.57;2.85;;;7.60;92.80;;;;;;5023462;28;20045;-77
2024/02/08 03:01:49;;;;;;;14.02;3.25;;;7.50;92.80;;;;;;5029157;28;20091;-77
2024/02/08 03:04:16;;;;;;;12.40;2.88;;;7.50;92.90;;;;;;5030553;28;20397;-78
2024/02/08 03:06:52;;;;;;;11.05;2.88;;;7.50;92.90;;;;;;5027950;28;20148;-78
2024/02/08 03:09:23;;;;;;;15.07;2.70;;;7.50;93.00;;;;;;5027560;28;20492;-78
2024/02/08 03:11:50;;;;;;;13.85;3.63;;;7.40;93.00;;;;;;5030995;28;20090;-77
2024/02/08 03:14:18;;;;;;;18.58;3.00;;;7.40;93.10;;;;;;5030137;28;20504;-77
2024/02/08 03:16:45;;;;;;;4.82;1.92;;;7.30;93.10;;;;;;5018013;28;20038;-77
2024/02/08 03:19:11;;;;;;;16.23;3.45;;;7.40;93.20;;;;;;5031042;28;20489;-78
2024/02/08 03:21:40;;;;;;;7.43;3.03;;;7.30;93.20;;;;;;5029009;28;20551;-78
2024/02/08 03:24:09;;;;;;;53.17;26.10;;;7.30;93.30;;;;;;5032626;28;20033;-77
2024/02/08 03:26:40;;;;;;;23.73;5.82;;;7.30;93.10;;;;;;5020152;28;20115;-78
2024/02/08 03:29:12;;;;;;;15.57;7.03;;;7.30;93.10;;;;;;5029473;28;20030;-78
2024/02/08 03:31:45;;;;;;;16.83;6.75;;;7.30;93.20;;;;;;5028762;28;20052;-78
2024/02/08 03:34:23;;;;;;;15.70;5.55;;;7.30;93.20;;;;;;5020728;28;20030;-78
2024/02/08 03:36:52;;;;;;;18.55;4.38;;;7.30;93.20;;;;;;5014787;28;20190;-78
2024/02/08 03:39:24;;;;;;;17.15;4.05;;;7.30;93.20;;;;;;5030597;28;20084;-77
2024/02/08 03:41:57;;;;;;;10.65;3.05;;;7.20;93.20;;;;;;5022056;28;20037;-77
2024/02/08 03:44:23;;;;;;;11.27;3.05;;;7.30;93.20;;;;;;5023017;28;20033;-77
2024/02/08 03:46:52;;;;;;;17.35;3.15;;;7.30;93.30;;;;;;5027169;28;20048;-78
2024/02/08 03:49:19;;;;;;;14.13;4.28;;;7.30;93.30;;;;;;5027160;28;20123;-78
2024/02/08 03:51:47;;;;;;;10.43;3.78;;;7.20;93.20;;;;;;5025715;28;20469;-78
2024/02/08 03:54:16;;;;;;;13.45;2.80;;;7.20;93.30;;;;;;5029680;28;20041;-77
2024/02/08 03:56:49;;;;;;;12.60;3.53;;;7.20;93.30;;;;;;5027769;28;20050;-78
2024/02/08 03:59:26;;;;;;;13.75;2.97;;;7.20;93.30;;;;;;5030422;28;20171;-78
2024/02/08 04:02:05;;;;;;;8.23;2.30;;;7.20;93.30;;;;;;5025704;28;20037;-78
2024/02/08 04:54:02;;;;;;;9.32;2.10;;;7.00;93.20;;;;;;5015522;28;20087;-78
2024/02/08 04:56:28;;;;;;;11.77;2.90;;;7.00;93.20;;;;;;5026965;28;20053;-78
2024/02/08 04:58:54;;;;;;;5.38;2.50;;;7.00;93.30;;;;;;5027654;28;20095;-78
2024/02/08 05:01:26;;;;;;;7.85;2.67;;;6.90;93.20;;;;;;5028414;28;20036;-77
2024/02/08 05:03:52;;;;;;;10.82;2.47;;;7.00;93.20;;;;;;5028887;28;20091;-78
2024/02/08 05:06:21;;;;;;;5.07;1.80;;;6.90;93.20;;;;;;5022585;28;20017;-77
2024/02/08 05:08:57;;;;;;;7.68;2.40;;;6.90;93.20;;;;;;5025004;28;20576;-78
2024/02/08 05:11:23;;;;;;;10.38;2.40;;;6.90;93.20;;;;;;5028355;28;20112;-77
2024/02/08 05:13:50;;;;;;;4.35;1.55;;;6.90;93.20;;;;;;5025098;28;20667;-78
2024/02/08 05:16:17;;;;;;;10.35;2.67;;;6.80;93.20;;;;;;5026794;28;20131;-78
2024/02/08 05:18:47;;;;;;;11.25;2.33;;;6.80;93.30;;;;;;5019842;28;20061;-78
2024/02/08 05:21:14;;;;;;;15.27;3.38;;;6.80;93.30;;;;;;5031158;28;20115;-78
2024/02/08 05:23:41;;;;;;;11.93;2.30;;;6.80;93.30;;;;;;5028227;28;20535;-78
2024/02/08 05:26:11;;;;;;;14.15;2.90;;;6.80;93.30;;;;;;5027540;28;20603;-77
2024/02/08 05:28:43;;;;;;;9.65;2.13;;;6.80;93.30;;;;;;5038877;28;20473;-78
2024/02/08 05:31:09;;;;;;;11.55;2.17;;;6.80;93.30;;;;;;5026378;28;20045;-78
2024/02/08 05:33:35;;;;;;;14.95;2.30;;;6.90;93.30;;;;;;5028701;28;20057;-78
2024/02/08 05:36:06;;;;;;;15.32;2.70;;;6.90;93.30;;;;;;5026336;28;20406;-77
2024/02/08 05:38:42;;;;;;;10.93;2.13;;;6.80;93.30;;;;;;5019187;28;20062;-78
2024/02/08 05:41:09;;;;;;;6.32;2.22;;;6.90;93.40;;;;;;5022180;28;20577;-77
2024/02/08 05:43:45;;;;;;;16.23;3.45;;;6.80;93.40;;;;;;5038080;28;20023;-77
2024/02/08 05:46:21;;;;;;;7.95;1.77;;;6.80;93.50;;;;;;5028497;28;20378;-78
2024/02/08 05:49:33;;;;;;;10.93;3.25;;;6.80;93.50;;;;;;5028164;28;20040;-78
2024/02/08 05:51:35;;;;;;;8.10;2.33;;;6.80;93.50;;;;;;5014375;28;20041;-80
2024/02/08 05:54:06;;;;;;;11.80;2.67;;;6.80;93.50;;;;;;5019231;28;20061;-80
2024/02/08 05:56:39;;;;;;;19.05;3.30;;;6.90;93.50;;;;;;5023447;28;20052;-78
2024/02/08 05:59:08;;;;;;;7.60;2.55;;;6.90;93.50;;;;;;5028404;28;20041;-77
2024/02/08 06:01:44;;;;;;;10.30;4.43;;;6.90;93.40;;;;;;5023621;28;20048;-78
2024/02/08 06:04:12;;;;;;;15.57;7.55;;;7.00;93.40;;;;;;5026120;28;20473;-78
2024/02/08 06:06:48;;;;;;;8.65;3.00;;;7.00;93.30;;;;;;5028119;28;20144;-78
2024/02/08 06:09:37;;;;;;;11.52;3.10;;;7.10;93.20;;;;;;5023824;28;20122;-77
2024/02/08 06:12:08;;;;;;;9.27;2.45;;;7.10;93.10;;;;;;5021851;28;20040;-79
2024/02/08 06:14:39;;;;;;;23.33;3.85;;;7.20;92.90;;;;;;5028395;28;20574;-78
2024/02/08 06:17:07;;;;;;;12.20;2.95;;;7.20;92.80;;;;;;5027032;28;20037;-78
2024/02/08 06:19:50;;;;;;;14.35;2.72;;;7.30;92.80;;;;;;5031508;28;20049;-78
2024/02/08 06:22:22;;;;;;;10.80;2.50;;;7.20;92.70;;;;;;5035169;28;20065;-78
2024/02/08 06:24:48;;;;;;;11.65;2.92;;;7.30;92.60;;;;;;5030414;28;20499;-78
2024/02/08 06:27:14;;;;;;;8.73;2.30;;;7.30;92.50;;;;;;5037800;28;20033;-78
2024/02/08 06:29:47;;;;;;;25.10;4.95;;;7.30;92.40;;;;;;5030692;28;20041;-78
2024/02/08 06:32:23;;;;;;;12.88;3.55;;;7.30;92.40;;;;;;5029332;28;20037;-78
2024/02/08 06:35:14;;;;;;;14.02;3.05;;;7.40;92.40;;;;;;5030417;28;20764;-78
2024/02/08 06:37:45;;;;;;;13.05;2.85;;;7.40;92.20;;;;;;5023581;28;20098;-78
2024/02/08 06:40:21;;;;;;;16.17;2.58;;;7.50;92.20;;;;;;5027223;28;20499;-78
2024/02/08 06:48:35;;;;;;;18.15;2.75;;;7.50;92.00;;;;;;5013669;28;20030;-76
2024/02/08 07:37:47;;;;;;;10.70;2.35;;;7.40;92.30;;;;;;5028301;28;20043;-78
2024/02/08 07:40:23;;;;;;;10.57;2.83;;;7.40;92.50;;;;;;5029465;28;20128;-78
2024/02/08 07:45:44;;;;;;;14.15;2.63;;;7.20;92.70;;;;;;5028809;28;20088;-77
2024/02/08 07:48:14;;;;;;;10.82;3.30;;;7.20;92.80;;;;;;5024107;28;20037;-77
2024/02/08 07:50:46;;;;;;;7.97;2.05;;;7.20;92.90;;;;;;5025040;28;20045;-78
2024/02/08 07:53:35;;;;;;;13.80;2.45;;;7.20;93.00;;;;;;5025875;28;20053;-78
2024/02/08 07:56:29;;;;;;;17.05;3.05;;;7.10;93.00;;;;;;5028480;28;20499;-78
2024/02/08 07:59:04;;;;;;;10.05;2.78;;;7.20;93.00;;;;;;5017637;28;20038;-78
2024/02/08 08:01:40;;;;;;;11.77;2.88;;;7.20;93.00;;;;;;5027157;28;20041;-77
2024/02/08 08:04:09;;;;;;;10.18;2.40;;;7.20;93.00;;;;;;5029050;28;20105;-79
2024/02/08 08:06:46;;;;;;;13.95;2.83;;;7.20;93.00;;;;;;5025016;28;20037;-79
2024/02/08 08:09:19;;;;;;;15.32;2.75;;;7.20;93.00;;;;;;5030554;28;20025;-80
2024/02/08 08:11:48;;;;;;;15.18;2.67;;;7.30;93.00;;;;;;5019946;28;20084;-78
2024/02/08 08:19:44;;;;;;;11.32;2.40;;;7.30;93.00;;;;;;5022097;28;20042;-77
2024/02/08 08:22:50;;;;;;;10.77;2.50;;;7.30;93.00;;;;;;5028227;28;20033;-77
2024/02/08 08:27:47;;;;;;;19.27;3.20;;;7.40;93.00;;;;;;5027155;28;20039;-79
2024/02/08 08:30:38;;;;;;;12.75;2.70;;;7.50;93.00;;;;;;5028560;28;20033;-76
2024/02/08 08:35:45;;;;;;;12.50;3.05;;;7.60;92.80;;;;;;5027326;28;20025;-76
2024/02/08 08:40:47;;;;;;;13.18;3.15;;;7.60;92.70;;;;;;5023755;28;20037;-78
2024/02/08 08:43:19;;;;;;;14.18;2.85;;;7.60;92.70;;;;;;5029073;28;20116;-77
2024/02/08 08:45:50;;;;;;;14.23;2.67;;;7.70;92.70;;;;;;5022701;28;20067;-77
2024/02/08 08:48:29;;;;;;;17.17;2.90;;;7.60;92.70;;;;;;5026911;28;20087;-76
2024/02/08 08:51:10;;;;;;;11.88;3.10;;;7.70;92.70;;;;;;5024172;28;20551;-77
2024/02/08 08:53:43;;;;;;;10.98;3.08;;;7.70;92.70;;;;;;5026446;28;20083;-77
2024/02/08 08:56:12;;;;;;;13.20;3.95;;;7.70;92.70;;;;;;5019626;28;20049;-77
2024/02/08 08:58:39;;;;;;;12.73;3.45;;;7.70;92.70;;;;;;5025747;28;20037;-77
2024/02/08 09:01:15;;;;;;;11.32;2.67;;;7.70;92.70;;;;;;5026114;28;20501;-79
2024/02/08 09:06:32;;;;;;;7.30;3.05;;;7.80;92.60;;;;;;5023599;28;20485;-77
2024/02/08 09:08:59;;;;;;;16.50;3.15;;;7.80;92.50;;;;;;5027554;28;20040;-77
2024/02/08 09:11:25;;;;;;;19.30;3.70;;;7.90;92.50;;;;;;5028887;28;20033;-77
2024/02/08 09:13:52;;;;;;;12.65;3.97;;;7.90;92.40;;;;;;5029280;28;20044;-77
2024/02/08 09:21:26;;;;;;;12.93;3.55;;;8.00;92.20;;;;;;5016720;28;20504;-77
2024/02/08 09:23:52;;;;;;;15.18;3.95;;;8.10;92.20;;;;;;5028078;28;20083;-77
2024/02/08 09:26:24;;;;;;;10.60;3.42;;;8.10;92.00;;;;;;5027232;28;20029;-77
2024/02/08 09:28:52;;;;;;;13.48;3.65;;;8.10;92.00;;;;;;5021969;28;20029;-77
2024/02/08 09:31:18;;;;;;;8.15;3.00;;;8.20;91.90;;;;;;5033566;28;20063;-75
2024/02/08 09:34:00;;;;;;;38.35;4.90;;;8.20;92.00;;;;;;5026662;28;20112;-76
2024/02/08 09:36:26;;;;;;;17.30;3.17;;;8.20;92.00;;;;;;5016600;28;20108;-76
2024/02/08 09:38:56;;;;;;;18.45;3.38;;;8.20;91.90;;;;;;5023758;28;20112;-76
2024/02/08 09:41:25;;;;;;;9.50;3.42;;;8.20;91.90;;;;;;5028190;28;20048;-77
2024/02/08 09:44:09;;;;;;;10.85;3.50;;;8.30;91.90;;;;;;5027087;28;20034;-76
2024/02/08 09:49:21;;;;;;;12.20;3.13;;;8.40;91.70;;;;;;5018335;28;20041;-77
2024/02/08 09:51:55;;;;;;;12.43;2.83;;;8.30;91.70;;;;;;5029767;28;20036;-76
2024/02/08 09:54:30;;;;;;;19.52;3.53;;;8.40;91.70;;;;;;5030046;28;20034;-77
2024/02/08 09:57:22;;;;;;;16.13;2.78;;;8.40;91.60;;;;;;5030964;28;20060;-76
2024/02/08 10:00:34;;;;;;;14.75;3.08;;;8.50;91.60;;;;;;5030871;28;20481;-77
2024/02/08 10:03:03;;;;;;;12.68;3.40;;;8.50;91.60;;;;;;5029627;28;20120;-78
2024/02/08 10:05:57;;;;;;;11.07;2.80;;;8.60;91.60;;;;;;5030994;28;20061;-77
2024/02/08 10:08:29;;;;;;;9.85;2.75;;;8.60;91.50;;;;;;5019548;28;20392;-76
2024/02/08 10:11:11;;;;;;;18.80;4.05;;;8.60;91.40;;;;;;5032221;28;20527;-77
2024/02/08 10:16:41;;;;;;;8.88;3.28;;;8.50;91.50;;;;;;5028816;28;20040;-78
2024/02/08 10:19:24;;;;;;;9.98;2.97;;;8.60;91.60;;;;;;5023578;28;20033;-76
2024/02/08 10:22:18;;;;;;;14.00;3.65;;;8.60;91.60;;;;;;5027851;28;20124;-77
2024/02/08 10:27:21;;;;;;;9.30;3.47;;;8.60;91.50;;;;;;5031256;28;20417;-77
2024/02/08 10:30:05;;;;;;;7.53;3.00;;;8.60;91.50;;;;;;5031500;28;20514;-76
2024/02/08 10:32:34;;;;;;;;;;;8.60;91.50;;;;;;5022411;28;20037;-77
2024/02/08 10:35:20;;;;;;;14.88;2.80;;;8.60;91.60;;;;;;5019022;28;19905;-77
2024/02/08 10:37:53;;;;;;;13.02;2.97;;;8.60;91.60;;;;;;5015472;28;20033;-77
2024/02/08 10:40:29;;;;;;;13.77;3.95;;;8.60;91.70;;;;;;5022132;28;20053;-77
2024/02/08 10:42:59;;;;;;;12.93;3.13;;;8.60;91.70;;;;;;5024093;28;20389;-77
2024/02/08 10:45:26;;;;;;;22.50;3.40;;;8.60;91.70;;;;;;5023847;28;20025;-76
2024/02/08 10:47:55;;;;;;;11.30;3.17;;;8.60;91.70;;;;;;5018093;28;20029;-76
2024/02/08 10:50:20;;;;;;;16.60;3.58;;;8.70;91.70;;;;;;5017923;28;20068;-77
2024/02/08 10:52:51;;;;;;;21.98;3.13;;;8.80;91.70;;;;;;5030719;28;20084;-76
2024/02/08 10:55:30;;;;;;;16.10;3.53;;;8.90;91.60;;;;;;5030431;28;20493;-77
2024/02/08 11:03:08;;;;;;;13.88;3.58;;;8.90;91.60;;;;;;5030124;28;20029;-77
2024/02/08 11:06:00;;;;;;;14.38;2.90;;;8.90;91.90;;;;;;5030264;28;20489;-78
2024/02/08 11:08:50;;;;;;;13.13;3.10;;;9.00;91.70;;;;;;5021898;28;20029;-82
2024/02/08 11:11:20;;;;;;;11.18;2.55;;;8.90;91.60;;;;;;5028581;28;20044;-78
2024/02/08 11:13:53;;;;;;;18.30;3.50;;;9.00;91.70;;;;;;5028901;28;20033;-77
2024/02/08 11:16:33;;;;;;;26.90;3.60;;;9.00;91.80;;;;;;5030671;28;20053;-77
2024/02/08 11:19:04;;;;;;;15.50;3.22;;;9.00;91.90;;;;;;5028888;28;20059;-77
2024/02/08 11:21:45;;;;;;;11.02;2.85;;;9.00;91.90;;;;;;5021347;28;20083;-78
2024/02/08 11:24:38;;;;;;;9.43;3.10;;;9.00;91.90;;;;;;5030625;28;20037;-77
2024/02/08 11:27:04;;;;;;;11.00;3.45;;;9.00;91.90;;;;;;5026171;28;20027;-78
2024/02/08 11:29:45;;;;;;;10.65;3.08;;;9.00;92.20;;;;;;5030522;28;20061;-77
2024/02/08 11:32:17;;;;;;;13.10;3.10;;;8.90;92.10;;;;;;5030620;28;20056;-77
2024/02/08 11:34:46;;;;;;;17.85;3.00;;;9.00;92.10;;;;;;5028238;28;20048;-77
2024/02/08 11:37:16;;;;;;;17.83;2.55;;;9.00;92.40;;;;;;5030579;28;20038;-77
2024/02/08 11:39:46;;;;;;;11.13;3.20;;;8.90;92.60;;;;;;5026413;28;20073;-77
2024/02/08 11:42:17;;;;;;;14.50;2.83;;;8.90;92.60;;;;;;5029901;28;20572;-77
2024/02/08 11:44:44;;;;;;;10.88;3.38;;;8.90;92.70;;;;;;5034453;28;20115;-78
2024/02/08 11:47:20;;;;;;;15.07;3.45;;;8.90;92.90;;;;;;5037307;28;20380;-78
2024/02/08 11:50:01;;;;;;;15.15;2.85;;;8.80;93.00;;;;;;5023413;28;20044;-78
2024/02/08 11:52:28;;;;;;;13.00;2.83;;;8.80;93.00;;;;;;5025354;28;20071;-77
2024/02/08 11:55:12;;;;;;;8.48;2.67;;;8.80;93.10;;;;;;5029509;28;20099;-78
2024/02/08 11:57:42;;;;;;;10.88;2.65;;;8.80;93.30;;;;;;5020728;28;20034;-78
2024/02/08 12:00:18;;;;;;;14.82;3.13;;;8.80;93.50;;;;;;5029692;28;20040;-78
2024/02/08 12:02:54;;;;;;;13.55;2.58;;;8.80;93.70;;;;;;5028592;28;20025;-77
2024/02/08 12:05:20;;;;;;;13.07;2.53;;;8.70;93.70;;;;;;5039422;28;20411;-77
2024/02/08 12:07:46;;;;;;;16.38;2.97;;;8.80;93.80;;;;;;5028168;28;20034;-77
2024/02/08 12:10:21;;;;;;;18.23;2.20;;;8.80;93.90;;;;;;5026179;28;20120;-78
2024/02/08 12:12:53;;;;;;;14.80;2.80;;;8.80;94.00;;;;;;5026474;28;20040;-77
2024/02/08 12:15:22;;;;;;;11.25;3.05;;;8.80;94.00;;;;;;5028436;28;20029;-76
2024/02/08 12:18:05;;;;;;;9.88;2.92;;;8.80;94.00;;;;;;5019959;28;20436;-77
2024/02/08 12:20:36;;;;;;;15.45;2.50;;;8.80;94.00;;;;;;5028938;28;20044;-78
2024/02/08 12:23:02;;;;;;;13.57;2.55;;;8.80;93.90;;;;;;5025457;28;20021;-77
2024/02/08 12:25:31;;;;;;;12.57;3.28;;;8.90;94.00;;;;;;5025512;28;20049;-78
2024/02/08 12:28:04;;;;;;;9.23;3.20;;;8.80;94.00;;;;;;5030005;28;20033;-78
2024/02/08 12:30:36;;;;;;;18.60;2.63;;;8.90;94.10;;;;;;5019757;28;20354;-78
2024/02/08 12:33:07;;;;;;;9.48;2.53;;;8.90;94.10;;;;;;5028230;28;20488;-78
2024/02/08 12:35:40;;;;;;;13.15;2.78;;;8.90;94.00;;;;;;5021271;28;20037;-78
2024/02/08 12:38:07;;;;;;;6.13;1.80;;;8.90;93.80;;;;;;5021551;28;20081;-78
2024/02/08 12:40:33;;;;;;;12.90;2.60;;;9.10;93.60;;;;;;5028744;28;20630;-78
2024/02/08 12:43:07;;;;;;;9.57;2.58;;;9.10;93.60;;;;;;5028503;28;20112;-78
2024/02/08 12:45:41;;;;;;;9.55;2.13;;;9.10;93.40;;;;;;5027306;28;20636;-78
2024/02/08 12:48:07;;;;;;;11.00;1.80;;;9.10;93.40;;;;;;5029277;28;20143;-78
2024/02/08 12:50:38;;;;;;;10.95;2.65;;;9.20;93.40;;;;;;5028451;28;20040;-78
2024/02/08 12:53:07;;;;;;;19.00;3.03;;;9.20;93.30;;;;;;5029010;28;20120;-78
2024/02/08 12:55:33;;;;;;;8.05;2.58;;;9.20;93.30;;;;;;5025598;28;20041;-78
2024/02/08 12:58:03;;;;;;;10.02;2.42;;;9.20;93.30;;;;;;5025645;28;20121;-78
2024/02/08 13:00:35;;;;;;;11.10;2.22;;;9.20;93.20;;;;;;5029576;28;20049;-77
2024/02/08 13:03:05;;;;;;;13.65;2.08;;;9.20;93.30;;;;;;5026333;28;20124;-78
2024/02/08 13:05:38;;;;;;;17.42;2.90;;;9.20;93.40;;;;;;5017010;28;20046;-78
2024/02/08 13:08:06;;;;;;;9.65;2.83;;;9.20;93.50;;;;;;5028705;28;20037;-78
2024/02/08 13:10:32;;;;;;;18.75;2.90;;;9.20;93.40;;;;;;5015916;28;20026;-77
2024/02/08 13:12:59;;;;;;;14.52;3.63;;;9.30;93.50;;;;;;5027910;28;20481;-78
2024/02/08 13:15:30;;;;;;;12.43;3.65;;;9.30;93.50;;;;;;5021040;28;20033;-78
2024/02/08 13:17:56;;;;;;;15.35;3.50;;;9.30;93.50;;;;;;5020822;28;20759;-78
2024/02/08 13:20:23;;;;;;;8.23;2.83;;;9.30;93.40;;;;;;5027957;28;20037;-78
2024/02/08 13:22:51;;;;;;;4.43;1.67;;;9.30;93.40;;;;;;5020175;28;20455;-77
2024/02/08 13:25:18;;;;;;;7.28;1.65;;;9.30;93.60;;;;;;5018365;28;20064;-80
2024/02/08 13:27:45;;;;;;;6.25;1.75;;;9.30;93.80;;;;;;5018477;28;20034;-78
2024/02/08 13:30:17;;;;;;;4.25;1.38;;;9.20;93.80;;;;;;5020414;28;20037;-80
2024/02/08 13:32:44;;;;;;;3.05;1.00;;;9.30;94.10;;;;;;5025860;28;20557;-80
2024/02/08 13:35:20;;;;;;;4.95;1.15;;;9.20;94.40;;;;;;5020513;28;20080;-78
2024/02/08 13:37:50;;;;;;;9.30;1.48;;;9.10;94.70;;;;;;5025651;28;20034;-78
2024/02/08 13:40:18;;;;;;;4.03;1.25;;;9.00;94.60;;;;;;5014306;28;20037;-77
2024/02/08 13:42:44;;;;;;;2.60;1.02;;;9.00;94.80;;;;;;5018457;28;20028;-77
2024/02/08 13:45:13;;;;;;;3.72;0.90;;;9.00;95.10;;;;;;5027863;28;20539;-77
2024/02/08 13:47:49;;;;;;;8.15;1.20;;;9.10;94.90;;;;;;5025952;28;20048;-77
2024/02/08 13:50:18;;;;;;;4.68;1.00;;;9.00;95.00;;;;;;5022057;28;20033;-77
2024/02/08 13:52:48;;;;;;;6.05;0.95;;;9.00;95.00;;;;;;5028539;28;20044;-77
2024/02/08 13:55:17;;;;;;;1.77;0.88;;;9.00;95.10;;;;;;5026683;28;20048;-77
2024/02/08 13:57:50;;;;;;;3.35;1.30;;;9.00;95.20;;;;;;5027940;28;20046;-77
2024/02/08 14:00:21;;;;;;;7.80;1.15;;;8.90;95.20;;;;;;5024441;28;20037;-77
2024/02/08 14:02:53;;;;;;;6.03;1.73;;;8.90;95.30;;;;;;5032273;28;20030;-76
2024/02/08 14:05:23;;;;;;;5.05;1.67;;;8.90;95.40;;;;;;5030677;28;20040;-77
2024/02/08 14:07:52;;;;;;;4.03;1.23;;;8.90;95.40;;;;;;5026716;28;20139;-77
2024/02/08 14:10:18;;;;;;;8.05;1.52;;;8.90;95.40;;;;;;5028362;28;20048;-77
2024/02/08 14:12:45;;;;;;;5.15;1.10;;;8.90;95.30;;;;;;5014844;28;20103;-76
2024/02/08 14:15:12;;;;;;;3.15;1.17;;;8.90;95.10;;;;;;5021949;28;20106;-77
2024/02/08 14:17:41;;;;;;;3.20;1.40;;;9.00;94.90;;;;;;5026637;28;20061;-77
2024/02/08 14:22:59;;;;;;;3.58;1.40;;;9.00;94.90;;;;;;5027257;28;20037;-77
2024/02/08 14:25:48;;;;;;;2.65;1.13;;;9.10;94.80;;;;;;5022839;28;20030;-77
2024/02/08 14:28:19;;;;;;;5.05;1.65;;;9.10;94.90;;;;;;5027449;28;20029;-77
2024/02/08 14:30:46;;;;;;;9.15;1.45;;;9.10;94.90;;;;;;5015642;28;20551;-77
2024/02/08 14:33:11;;;;;;;5.57;1.80;;;9.10;95.00;;;;;;5021827;28;20067;-77
2024/02/08 14:35:40;;;;;;;4.05;1.20;;;9.00;94.90;;;;;;5022436;28;20057;-77
2024/02/08 14:38:07;;;;;;;4.30;1.60;;;9.10;94.90;;;;;;5030926;28;20679;-82
2024/02/08 14:40:33;;;;;;;5.18;1.30;;;9.10;94.90;;;;;;5031289;28;20072;-77
2024/02/08 14:42:59;;;;;;;5.93;1.60;;;9.10;94.90;;;;;;5031099;28;20029;-77
2024/02/08 14:45:35;;;;;;;6.35;2.45;;;9.00;94.90;;;;;;5026807;28;20512;-77
2024/02/08 14:48:10;;;;;;;6.43;1.83;;;9.00;95.00;;;;;;5022829;28;20168;-77
2024/02/08 14:50:55;;;;;;;4.32;1.60;;;9.00;95.10;;;;;;5027921;28;20478;-77
2024/02/08 14:53:23;;;;;;;1.70;1.08;;;9.00;95.10;;;;;;5030602;28;20033;-75
2024/02/08 14:55:51;;;;;;;5.07;1.42;;;9.00;95.20;;;;;;5033541;28;20095;-77
2024/02/08 14:58:33;;;;;;;4.97;1.30;;;9.00;95.30;;;;;;5031364;28;20029;-77
2024/02/08 15:01:09;;;;;;;2.22;1.30;;;8.90;95.30;;;;;;5032911;28;20510;-77
2024/02/08 15:03:44;;;;;;;4.30;1.92;;;8.90;95.40;;;;;;5037425;28;20108;-76
2024/02/08 15:06:38;;;;;;;7.43;1.35;;;8.80;95.50;;;;;;5031942;28;20469;-76
2024/02/08 15:09:47;;;;;;;4.93;1.80;;;8.80;95.60;;;;;;5033318;28;20052;-76
2024/02/08 15:14:36;;;;;;;7.90;2.38;;;8.70;95.60;;;;;;5028651;28;20114;-76
2024/02/08 15:17:19;;;;;;;8.60;1.65;;;8.80;95.50;;;;;;5028319;28;20035;-76
2024/02/08 15:19:45;;;;;;;6.85;2.58;;;8.70;95.40;;;;;;5036181;28;20053;-76
2024/02/08 15:24:57;;;;;;;7.18;1.70;;;8.70;95.50;;;;;;5023940;28;20082;-77
2024/02/08 15:27:34;;;;;;;3.33;1.13;;;8.70;95.50;;;;;;5028627;28;20018;-77
2024/02/08 15:30:18;;;;;;;5.07;1.70;;;8.70;95.50;;;;;;5037203;28;20096;-77
2024/02/08 15:32:55;;;;;;;7.43;1.92;;;8.60;95.60;;;;;;5026775;28;20546;-76
2024/02/08 15:35:26;;;;;;;2.55;1.40;;;8.70;95.60;;;;;;5017578;28;20069;-76
2024/02/08 15:40:45;;;;;;;5.05;1.25;;;8.70;95.50;;;;;;5032226;28;20451;-76
2024/02/08 15:43:15;;;;;;;2.53;0.80;;;8.70;95.40;;;;;;5029522;28;20490;-76